Archival Weather

South Haven Area Rgnl

South Haven, Michigan (KLWA)

Report from: Thursday, September 21, 2023 4:55 PM EDT
Current time: Saturday, February 24, 2024 12:01 PM EST

Current weather – Weather history – Daily summaries
Weather forecast

Temperature26.4°C (79.5°F)
Dew point16.0°C (60.8°F)
Winds 4 kts (2.1 m/s, 4.6 mph) South (170°)
Visibility10 mi. (16.1 km)
Clouds Sky clear
Altimeter30.20 in.Hg (1023 mB)
Relative humidity53 %
Density altitude1,251 ft. (381 m)
Remarks Fully automated report
Automated weather observing station with precipitation discriminator
Flight conditions Visual Meteorological Conditions
Raw dataKLWA 212055Z AUTO 17004KT 10SM CLR 26/16 A3020 RMK AO2 T02640160
An error has occurred. This application may no longer respond until reloaded. Reload 🗙